sensor_id;sensor_type;location;lat;lon;timestamp;P1;durP1;ratioP1;P2;durP2;ratioP2
19402;SDS011;9837;48.888;8.998;2023-04-15T00:00:45;3.20;;;1.90;;
19402;SDS011;9837;48.888;8.998;2023-04-15T00:03:11;7.20;;;2.43;;
19402;SDS011;9837;48.888;8.998;2023-04-15T00:05:38;5.47;;;2.30;;
19402;SDS011;9837;48.888;8.998;2023-04-15T00:08:04;5.17;;;2.50;;
19402;SDS011;9837;48.888;8.998;2023-04-15T00:10:30;3.63;;;2.37;;
19402;SDS011;9837;48.888;8.998;2023-04-15T00:12:56;5.07;;;2.73;;
19402;SDS011;9837;48.888;8.998;2023-04-15T00:15:22;4.43;;;2.37;;
19402;SDS011;9837;48.888;8.998;2023-04-15T00:17:51;6.10;;;2.57;;
19402;SDS011;9837;48.888;8.998;2023-04-15T00:20:17;6.93;;;2.70;;
19402;SDS011;9837;48.888;8.998;2023-04-15T00:22:43;5.67;;;2.93;;
19402;SDS011;9837;48.888;8.998;2023-04-15T00:25:10;9.10;;;2.90;;
19402;SDS011;9837;48.888;8.998;2023-04-15T00:27:42;7.00;;;2.70;;
19402;SDS011;9837;48.888;8.998;2023-04-15T00:30:08;9.53;;;3.13;;
19402;SDS011;9837;48.888;8.998;2023-04-15T00:32:34;3.03;;;2.30;;
19402;SDS011;9837;48.888;8.998;2023-04-15T00:35:00;6.00;;;2.97;;
19402;SDS011;9837;48.888;8.998;2023-04-15T00:37:27;5.13;;;2.37;;
19402;SDS011;9837;48.888;8.998;2023-04-15T00:39:53;4.43;;;2.47;;
19402;SDS011;9837;48.888;8.998;2023-04-15T00:42:19;4.37;;;2.77;;
19402;SDS011;9837;48.888;8.998;2023-04-15T00:44:45;8.87;;;3.40;;
19402;SDS011;9837;48.888;8.998;2023-04-15T00:47:12;7.60;;;3.50;;
19402;SDS011;9837;48.888;8.998;2023-04-15T00:49:39;8.27;;;4.10;;
19402;SDS011;9837;48.888;8.998;2023-04-15T00:52:06;4.90;;;2.93;;
19402;SDS011;9837;48.888;8.998;2023-04-15T00:54:33;4.83;;;3.00;;
19402;SDS011;9837;48.888;8.998;2023-04-15T00:56:59;10.87;;;3.50;;
19402;SDS011;9837;48.888;8.998;2023-04-15T00:59:25;4.63;;;2.90;;
19402;SDS011;9837;48.888;8.998;2023-04-15T01:01:51;6.80;;;2.70;;
19402;SDS011;9837;48.888;8.998;2023-04-15T01:04:18;5.67;;;2.67;;
19402;SDS011;9837;48.888;8.998;2023-04-15T01:06:44;8.43;;;2.73;;
19402;SDS011;9837;48.888;8.998;2023-04-15T01:09:10;4.13;;;2.47;;
19402;SDS011;9837;48.888;8.998;2023-04-15T01:11:36;6.40;;;2.53;;
19402;SDS011;9837;48.888;8.998;2023-04-15T01:14:02;7.17;;;2.60;;
19402;SDS011;9837;48.888;8.998;2023-04-15T01:16:30;8.17;;;2.90;;
19402;SDS011;9837;48.888;8.998;2023-04-15T01:18:56;6.50;;;2.63;;
19402;SDS011;9837;48.888;8.998;2023-04-15T01:21:22;6.27;;;3.03;;
19402;SDS011;9837;48.888;8.998;2023-04-15T01:23:48;6.40;;;2.40;;
19402;SDS011;9837;48.888;8.998;2023-04-15T01:26:16;8.93;;;2.93;;
19402;SDS011;9837;48.888;8.998;2023-04-15T01:28:42;6.87;;;2.40;;
19402;SDS011;9837;48.888;8.998;2023-04-15T01:31:13;5.10;;;2.60;;
19402;SDS011;9837;48.888;8.998;2023-04-15T01:33:40;3.10;;;2.00;;
19402;SDS011;9837;48.888;8.998;2023-04-15T01:36:06;8.73;;;3.63;;
19402;SDS011;9837;48.888;8.998;2023-04-15T01:38:34;6.63;;;2.33;;
19402;SDS011;9837;48.888;8.998;2023-04-15T01:41:00;5.40;;;2.70;;
19402;SDS011;9837;48.888;8.998;2023-04-15T01:43:28;6.17;;;2.80;;
19402;SDS011;9837;48.888;8.998;2023-04-15T01:45:54;9.33;;;2.87;;
19402;SDS011;9837;48.888;8.998;2023-04-15T01:48:21;7.73;;;2.53;;
19402;SDS011;9837;48.888;8.998;2023-04-15T01:50:47;5.37;;;2.50;;
19402;SDS011;9837;48.888;8.998;2023-04-15T01:53:13;5.67;;;2.70;;
19402;SDS011;9837;48.888;8.998;2023-04-15T01:55:40;7.17;;;3.00;;
19402;SDS011;9837;48.888;8.998;2023-04-15T01:58:06;3.60;;;2.07;;
19402;SDS011;9837;48.888;8.998;2023-04-15T02:00:32;7.03;;;2.50;;
19402;SDS011;9837;48.888;8.998;2023-04-15T02:02:58;7.80;;;3.03;;
19402;SDS011;9837;48.888;8.998;2023-04-15T02:05:24;5.10;;;2.60;;
19402;SDS011;9837;48.888;8.998;2023-04-15T02:07:50;10.83;;;2.93;;
19402;SDS011;9837;48.888;8.998;2023-04-15T02:10:17;3.93;;;2.47;;
19402;SDS011;9837;48.888;8.998;2023-04-15T02:12:44;5.10;;;2.80;;
19402;SDS011;9837;48.888;8.998;2023-04-15T02:15:10;8.40;;;2.93;;
19402;SDS011;9837;48.888;8.998;2023-04-15T02:17:36;4.07;;;2.50;;
19402;SDS011;9837;48.888;8.998;2023-04-15T02:20:03;5.77;;;2.67;;
19402;SDS011;9837;48.888;8.998;2023-04-15T02:22:32;9.90;;;3.60;;
19402;SDS011;9837;48.888;8.998;2023-04-15T02:24:58;6.63;;;3.43;;
19402;SDS011;9837;48.888;8.998;2023-04-15T02:27:25;6.83;;;3.60;;
19402;SDS011;9837;48.888;8.998;2023-04-15T02:29:52;8.97;;;3.87;;
19402;SDS011;9837;48.888;8.998;2023-04-15T02:32:18;8.83;;;3.53;;
19402;SDS011;9837;48.888;8.998;2023-04-15T02:34:47;4.97;;;3.17;;
19402;SDS011;9837;48.888;8.998;2023-04-15T02:37:13;3.83;;;3.43;;
19402;SDS011;9837;48.888;8.998;2023-04-15T02:39:40;9.67;;;3.90;;
19402;SDS011;9837;48.888;8.998;2023-04-15T02:42:06;13.33;;;3.93;;
19402;SDS011;9837;48.888;8.998;2023-04-15T02:44:32;7.70;;;4.00;;
19402;SDS011;9837;48.888;8.998;2023-04-15T02:47:00;6.97;;;3.10;;
19402;SDS011;9837;48.888;8.998;2023-04-15T02:49:27;6.57;;;3.80;;
19402;SDS011;9837;48.888;8.998;2023-04-15T02:51:54;9.83;;;3.60;;
19402;SDS011;9837;48.888;8.998;2023-04-15T02:54:22;5.10;;;3.13;;
19402;SDS011;9837;48.888;8.998;2023-04-15T02:56:48;5.37;;;2.77;;
19402;SDS011;9837;48.888;8.998;2023-04-15T02:59:15;7.60;;;3.33;;
19402;SDS011;9837;48.888;8.998;2023-04-15T03:01:41;7.93;;;3.47;;
19402;SDS011;9837;48.888;8.998;2023-04-15T03:04:07;8.20;;;4.03;;
19402;SDS011;9837;48.888;8.998;2023-04-15T03:06:33;4.53;;;3.00;;
19402;SDS011;9837;48.888;8.998;2023-04-15T03:09:00;6.10;;;2.93;;
19402;SDS011;9837;48.888;8.998;2023-04-15T03:11:27;3.83;;;2.70;;
19402;SDS011;9837;48.888;8.998;2023-04-15T03:13:53;5.47;;;2.60;;
19402;SDS011;9837;48.888;8.998;2023-04-15T03:16:19;6.00;;;2.70;;
19402;SDS011;9837;48.888;8.998;2023-04-15T03:18:45;4.57;;;2.70;;
19402;SDS011;9837;48.888;8.998;2023-04-15T03:21:11;5.57;;;2.63;;
19402;SDS011;9837;48.888;8.998;2023-04-15T03:23:37;8.37;;;2.40;;
19402;SDS011;9837;48.888;8.998;2023-04-15T03:26:04;4.37;;;2.30;;
19402;SDS011;9837;48.888;8.998;2023-04-15T03:28:30;2.67;;;2.20;;
19402;SDS011;9837;48.888;8.998;2023-04-15T03:30:56;5.17;;;2.47;;
19402;SDS011;9837;48.888;8.998;2023-04-15T03:33:22;8.43;;;3.10;;
19402;SDS011;9837;48.888;8.998;2023-04-15T03:35:51;7.50;;;2.77;;
19402;SDS011;9837;48.888;8.998;2023-04-15T03:38:18;4.30;;;2.73;;
19402;SDS011;9837;48.888;8.998;2023-04-15T03:40:45;3.53;;;2.77;;
19402;SDS011;9837;48.888;8.998;2023-04-15T03:43:11;5.73;;;2.47;;
19402;SDS011;9837;48.888;8.998;2023-04-15T03:45:37;10.47;;;3.80;;
19402;SDS011;9837;48.888;8.998;2023-04-15T03:48:04;8.90;;;3.80;;
19402;SDS011;9837;48.888;8.998;2023-04-15T03:50:30;10.57;;;4.43;;
19402;SDS011;9837;48.888;8.998;2023-04-15T03:52:56;7.93;;;4.00;;
19402;SDS011;9837;48.888;8.998;2023-04-15T03:55:22;17.13;;;4.50;;
19402;SDS011;9837;48.888;8.998;2023-04-15T03:57:49;8.47;;;3.57;;
19402;SDS011;9837;48.888;8.998;2023-04-15T04:00:18;5.50;;;3.30;;
19402;SDS011;9837;48.888;8.998;2023-04-15T04:02:44;5.43;;;3.23;;
19402;SDS011;9837;48.888;8.998;2023-04-15T04:05:10;3.83;;;2.50;;
19402;SDS011;9837;48.888;8.998;2023-04-15T04:07:36;5.37;;;2.50;;
19402;SDS011;9837;48.888;8.998;2023-04-15T04:10:02;6.33;;;3.10;;
19402;SDS011;9837;48.888;8.998;2023-04-15T04:12:29;4.53;;;2.77;;
19402;SDS011;9837;48.888;8.998;2023-04-15T04:14:55;4.03;;;2.87;;
19402;SDS011;9837;48.888;8.998;2023-04-15T04:17:21;5.10;;;2.90;;
19402;SDS011;9837;48.888;8.998;2023-04-15T04:19:47;10.70;;;2.67;;
19402;SDS011;9837;48.888;8.998;2023-04-15T04:22:13;3.87;;;2.30;;
19402;SDS011;9837;48.888;8.998;2023-04-15T04:24:39;11.03;;;2.77;;
19402;SDS011;9837;48.888;8.998;2023-04-15T04:27:05;5.50;;;2.73;;
19402;SDS011;9837;48.888;8.998;2023-04-15T04:29:32;3.87;;;2.37;;
19402;SDS011;9837;48.888;8.998;2023-04-15T04:31:58;6.43;;;2.63;;
19402;SDS011;9837;48.888;8.998;2023-04-15T04:34:24;2.60;;;2.13;;
19402;SDS011;9837;48.888;8.998;2023-04-15T04:36:50;4.87;;;2.77;;
19402;SDS011;9837;48.888;8.998;2023-04-15T04:39:16;5.37;;;2.40;;
19402;SDS011;9837;48.888;8.998;2023-04-15T04:41:43;5.07;;;2.77;;
19402;SDS011;9837;48.888;8.998;2023-04-15T04:44:09;4.47;;;2.83;;
19402;SDS011;9837;48.888;8.998;2023-04-15T04:46:35;3.90;;;2.80;;
19402;SDS011;9837;48.888;8.998;2023-04-15T04:49:01;6.40;;;2.80;;
19402;SDS011;9837;48.888;8.998;2023-04-15T04:51:27;4.03;;;2.63;;
19402;SDS011;9837;48.888;8.998;2023-04-15T04:53:53;4.90;;;2.60;;
19402;SDS011;9837;48.888;8.998;2023-04-15T04:56:20;6.27;;;2.60;;
19402;SDS011;9837;48.888;8.998;2023-04-15T04:58:46;5.97;;;3.10;;
19402;SDS011;9837;48.888;8.998;2023-04-15T05:01:12;5.13;;;3.53;;
19402;SDS011;9837;48.888;8.998;2023-04-15T05:03:38;4.80;;;3.93;;
19402;SDS011;9837;48.888;8.998;2023-04-15T05:06:04;6.70;;;4.10;;
19402;SDS011;9837;48.888;8.998;2023-04-15T05:08:32;10.37;;;4.37;;
19402;SDS011;9837;48.888;8.998;2023-04-15T05:10:58;9.67;;;4.47;;
19402;SDS011;9837;48.888;8.998;2023-04-15T05:13:25;11.77;;;6.07;;
19402;SDS011;9837;48.888;8.998;2023-04-15T05:15:51;8.03;;;4.97;;
19402;SDS011;9837;48.888;8.998;2023-04-15T05:18:17;7.60;;;5.13;;
19402;SDS011;9837;48.888;8.998;2023-04-15T05:20:43;10.30;;;5.20;;
19402;SDS011;9837;48.888;8.998;2023-04-15T05:23:09;9.80;;;4.27;;
19402;SDS011;9837;48.888;8.998;2023-04-15T05:25:35;10.83;;;5.40;;
19402;SDS011;9837;48.888;8.998;2023-04-15T05:28:01;13.10;;;5.63;;
19402;SDS011;9837;48.888;8.998;2023-04-15T05:30:27;9.20;;;3.90;;
19402;SDS011;9837;48.888;8.998;2023-04-15T05:32:54;6.37;;;4.43;;
19402;SDS011;9837;48.888;8.998;2023-04-15T05:35:20;6.83;;;4.10;;
19402;SDS011;9837;48.888;8.998;2023-04-15T05:37:46;8.83;;;3.70;;
19402;SDS011;9837;48.888;8.998;2023-04-15T05:40:12;12.03;;;5.13;;
19402;SDS011;9837;48.888;8.998;2023-04-15T05:42:39;11.23;;;5.47;;
19402;SDS011;9837;48.888;8.998;2023-04-15T05:47:49;9.47;;;4.23;;
19402;SDS011;9837;48.888;8.998;2023-04-15T05:50:18;12.03;;;5.57;;
19402;SDS011;9837;48.888;8.998;2023-04-15T05:52:44;7.20;;;3.80;;
19402;SDS011;9837;48.888;8.998;2023-04-15T05:55:10;7.87;;;3.13;;
19402;SDS011;9837;48.888;8.998;2023-04-15T05:57:37;6.20;;;4.53;;
19402;SDS011;9837;48.888;8.998;2023-04-15T06:00:03;9.50;;;4.70;;
19402;SDS011;9837;48.888;8.998;2023-04-15T06:02:30;4.70;;;3.53;;
19402;SDS011;9837;48.888;8.998;2023-04-15T06:04:56;7.37;;;4.10;;
19402;SDS011;9837;48.888;8.998;2023-04-15T06:07:23;6.30;;;3.30;;
19402;SDS011;9837;48.888;8.998;2023-04-15T06:09:49;5.43;;;2.17;;
19402;SDS011;9837;48.888;8.998;2023-04-15T06:12:15;3.10;;;1.93;;
19402;SDS011;9837;48.888;8.998;2023-04-15T06:14:41;4.60;;;2.23;;
19402;SDS011;9837;48.888;8.998;2023-04-15T06:17:07;4.97;;;2.63;;
19402;SDS011;9837;48.888;8.998;2023-04-15T06:19:34;4.27;;;2.00;;
19402;SDS011;9837;48.888;8.998;2023-04-15T06:22:03;2.57;;;2.13;;
19402;SDS011;9837;48.888;8.998;2023-04-15T06:24:31;6.33;;;2.00;;
19402;SDS011;9837;48.888;8.998;2023-04-15T06:26:57;4.87;;;2.13;;
19402;SDS011;9837;48.888;8.998;2023-04-15T06:29:23;4.17;;;2.30;;
19402;SDS011;9837;48.888;8.998;2023-04-15T06:31:49;5.83;;;2.20;;
19402;SDS011;9837;48.888;8.998;2023-04-15T06:34:16;5.17;;;2.53;;
19402;SDS011;9837;48.888;8.998;2023-04-15T06:36:42;4.90;;;2.50;;
19402;SDS011;9837;48.888;8.998;2023-04-15T06:39:08;8.07;;;2.67;;
19402;SDS011;9837;48.888;8.998;2023-04-15T06:41:34;3.27;;;2.30;;
19402;SDS011;9837;48.888;8.998;2023-04-15T06:44:00;4.13;;;1.93;;
19402;SDS011;9837;48.888;8.998;2023-04-15T06:46:29;4.80;;;2.10;;
19402;SDS011;9837;48.888;8.998;2023-04-15T06:48:56;5.03;;;2.43;;
19402;SDS011;9837;48.888;8.998;2023-04-15T06:51:24;3.77;;;2.00;;
19402;SDS011;9837;48.888;8.998;2023-04-15T06:53:51;4.43;;;2.20;;
19402;SDS011;9837;48.888;8.998;2023-04-15T06:56:17;4.60;;;2.03;;
19402;SDS011;9837;48.888;8.998;2023-04-15T06:58:43;4.00;;;2.17;;
19402;SDS011;9837;48.888;8.998;2023-04-15T07:01:09;4.83;;;2.30;;
19402;SDS011;9837;48.888;8.998;2023-04-15T07:03:35;3.77;;;2.30;;
19402;SDS011;9837;48.888;8.998;2023-04-15T07:06:01;7.40;;;2.27;;
19402;SDS011;9837;48.888;8.998;2023-04-15T07:08:30;6.40;;;2.40;;
19402;SDS011;9837;48.888;8.998;2023-04-15T07:10:57;3.80;;;2.17;;
19402;SDS011;9837;48.888;8.998;2023-04-15T07:13:29;5.60;;;2.10;;
19402;SDS011;9837;48.888;8.998;2023-04-15T07:15:55;3.67;;;2.30;;
19402;SDS011;9837;48.888;8.998;2023-04-15T07:18:21;6.83;;;2.20;;
19402;SDS011;9837;48.888;8.998;2023-04-15T07:20:47;5.40;;;2.80;;
19402;SDS011;9837;48.888;8.998;2023-04-15T07:23:13;5.60;;;3.30;;
19402;SDS011;9837;48.888;8.998;2023-04-15T07:25:40;4.57;;;2.57;;
19402;SDS011;9837;48.888;8.998;2023-04-15T07:28:06;6.10;;;3.17;;
19402;SDS011;9837;48.888;8.998;2023-04-15T07:30:32;6.80;;;2.77;;
19402;SDS011;9837;48.888;8.998;2023-04-15T07:32:58;7.03;;;3.07;;
19402;SDS011;9837;48.888;8.998;2023-04-15T07:35:25;5.40;;;3.50;;
19402;SDS011;9837;48.888;8.998;2023-04-15T07:37:51;5.07;;;2.83;;
19402;SDS011;9837;48.888;8.998;2023-04-15T07:40:17;18.00;;;3.30;;
19402;SDS011;9837;48.888;8.998;2023-04-15T07:42:43;4.53;;;2.77;;
19402;SDS011;9837;48.888;8.998;2023-04-15T07:45:10;4.20;;;2.07;;
19402;SDS011;9837;48.888;8.998;2023-04-15T07:47:36;6.23;;;2.63;;
19402;SDS011;9837;48.888;8.998;2023-04-15T07:50:02;5.30;;;2.47;;
19402;SDS011;9837;48.888;8.998;2023-04-15T07:52:28;7.27;;;2.70;;
19402;SDS011;9837;48.888;8.998;2023-04-15T07:54:55;8.67;;;2.33;;
19402;SDS011;9837;48.888;8.998;2023-04-15T07:57:21;3.63;;;2.20;;
19402;SDS011;9837;48.888;8.998;2023-04-15T07:59:47;11.53;;;2.53;;
19402;SDS011;9837;48.888;8.998;2023-04-15T08:02:13;6.33;;;2.27;;
19402;SDS011;9837;48.888;8.998;2023-04-15T08:04:39;4.27;;;2.20;;
19402;SDS011;9837;48.888;8.998;2023-04-15T08:07:05;7.17;;;2.70;;
19402;SDS011;9837;48.888;8.998;2023-04-15T08:09:31;4.23;;;2.13;;
19402;SDS011;9837;48.888;8.998;2023-04-15T08:11:57;10.03;;;2.57;;
19402;SDS011;9837;48.888;8.998;2023-04-15T08:14:23;7.77;;;2.20;;
19402;SDS011;9837;48.888;8.998;2023-04-15T08:16:49;6.53;;;2.37;;
19402;SDS011;9837;48.888;8.998;2023-04-15T08:19:15;6.60;;;2.50;;
19402;SDS011;9837;48.888;8.998;2023-04-15T08:21:41;6.43;;;2.40;;
19402;SDS011;9837;48.888;8.998;2023-04-15T08:24:07;5.20;;;2.33;;
19402;SDS011;9837;48.888;8.998;2023-04-15T08:26:33;7.50;;;2.70;;
19402;SDS011;9837;48.888;8.998;2023-04-15T08:28:59;5.40;;;2.17;;
19402;SDS011;9837;48.888;8.998;2023-04-15T08:31:26;4.27;;;1.97;;
19402;SDS011;9837;48.888;8.998;2023-04-15T08:33:55;3.67;;;2.20;;
19402;SDS011;9837;48.888;8.998;2023-04-15T08:36:21;6.83;;;2.77;;
19402;SDS011;9837;48.888;8.998;2023-04-15T08:38:47;6.73;;;2.60;;
19402;SDS011;9837;48.888;8.998;2023-04-15T08:41:33;4.47;;;2.50;;
19402;SDS011;9837;48.888;8.998;2023-04-15T08:44:09;6.43;;;2.40;;
19402;SDS011;9837;48.888;8.998;2023-04-15T08:46:35;6.93;;;2.50;;
19402;SDS011;9837;48.888;8.998;2023-04-15T08:49:04;5.80;;;2.40;;
19402;SDS011;9837;48.888;8.998;2023-04-15T08:51:33;4.13;;;2.30;;
19402;SDS011;9837;48.888;8.998;2023-04-15T08:53:59;7.57;;;2.40;;
19402;SDS011;9837;48.888;8.998;2023-04-15T08:56:25;6.70;;;2.53;;
19402;SDS011;9837;48.888;8.998;2023-04-15T08:58:55;8.50;;;3.10;;
19402;SDS011;9837;48.888;8.998;2023-04-15T09:01:21;5.53;;;2.50;;
19402;SDS011;9837;48.888;8.998;2023-04-15T09:03:47;5.70;;;2.17;;
19402;SDS011;9837;48.888;8.998;2023-04-15T09:06:17;4.93;;;2.47;;
19402;SDS011;9837;48.888;8.998;2023-04-15T09:08:43;6.43;;;2.33;;
19402;SDS011;9837;48.888;8.998;2023-04-15T09:11:09;4.10;;;2.20;;
19402;SDS011;9837;48.888;8.998;2023-04-15T09:13:36;4.97;;;2.67;;
19402;SDS011;9837;48.888;8.998;2023-04-15T09:16:02;6.03;;;2.67;;
19402;SDS011;9837;48.888;8.998;2023-04-15T09:18:32;6.60;;;2.70;;
19402;SDS011;9837;48.888;8.998;2023-04-15T09:21:11;4.00;;;2.30;;
19402;SDS011;9837;48.888;8.998;2023-04-15T09:23:38;4.30;;;2.10;;
19402;SDS011;9837;48.888;8.998;2023-04-15T09:26:05;4.40;;;2.47;;
19402;SDS011;9837;48.888;8.998;2023-04-15T09:28:31;6.87;;;2.80;;
19402;SDS011;9837;48.888;8.998;2023-04-15T09:30:57;4.57;;;2.50;;
19402;SDS011;9837;48.888;8.998;2023-04-15T09:33:24;4.60;;;2.37;;
19402;SDS011;9837;48.888;8.998;2023-04-15T09:38:23;5.47;;;2.57;;
19402;SDS011;9837;48.888;8.998;2023-04-15T09:40:49;6.33;;;2.90;;
19402;SDS011;9837;48.888;8.998;2023-04-15T09:43:15;3.90;;;2.60;;
19402;SDS011;9837;48.888;8.998;2023-04-15T09:45:52;3.57;;;2.97;;
19402;SDS011;9837;48.888;8.998;2023-04-15T09:48:22;8.23;;;3.43;;
19402;SDS011;9837;48.888;8.998;2023-04-15T09:50:51;5.57;;;3.33;;
19402;SDS011;9837;48.888;8.998;2023-04-15T09:53:22;4.53;;;2.87;;
19402;SDS011;9837;48.888;8.998;2023-04-15T09:55:49;8.50;;;2.90;;
19402;SDS011;9837;48.888;8.998;2023-04-15T09:58:19;3.00;;;2.70;;
19402;SDS011;9837;48.888;8.998;2023-04-15T10:00:46;7.90;;;5.23;;
19402;SDS011;9837;48.888;8.998;2023-04-15T10:03:14;8.30;;;3.60;;
19402;SDS011;9837;48.888;8.998;2023-04-15T10:05:43;7.23;;;3.40;;
19402;SDS011;9837;48.888;8.998;2023-04-15T10:08:09;6.50;;;3.30;;
19402;SDS011;9837;48.888;8.998;2023-04-15T10:10:35;9.43;;;3.03;;
19402;SDS011;9837;48.888;8.998;2023-04-15T10:13:01;6.93;;;3.50;;
19402;SDS011;9837;48.888;8.998;2023-04-15T10:15:27;6.50;;;3.20;;
19402;SDS011;9837;48.888;8.998;2023-04-15T10:17:54;5.70;;;3.47;;
19402;SDS011;9837;48.888;8.998;2023-04-15T10:20:21;7.40;;;3.20;;
19402;SDS011;9837;48.888;8.998;2023-04-15T10:22:47;7.87;;;3.73;;
19402;SDS011;9837;48.888;8.998;2023-04-15T10:25:14;6.60;;;3.03;;
19402;SDS011;9837;48.888;8.998;2023-04-15T10:27:40;7.43;;;2.93;;
19402;SDS011;9837;48.888;8.998;2023-04-15T10:30:07;4.67;;;2.27;;
19402;SDS011;9837;48.888;8.998;2023-04-15T10:32:33;3.57;;;1.80;;
19402;SDS011;9837;48.888;8.998;2023-04-15T10:34:59;3.90;;;1.90;;
19402;SDS011;9837;48.888;8.998;2023-04-15T10:37:33;4.83;;;2.30;;
19402;SDS011;9837;48.888;8.998;2023-04-15T10:40:00;2.30;;;1.90;;
19402;SDS011;9837;48.888;8.998;2023-04-15T10:42:32;4.73;;;1.97;;
19402;SDS011;9837;48.888;8.998;2023-04-15T10:44:59;4.57;;;2.40;;
19402;SDS011;9837;48.888;8.998;2023-04-15T10:47:25;4.20;;;1.97;;
19402;SDS011;9837;48.888;8.998;2023-04-15T10:49:54;2.67;;;1.70;;
19402;SDS011;9837;48.888;8.998;2023-04-15T10:52:22;4.90;;;2.20;;
19402;SDS011;9837;48.888;8.998;2023-04-15T10:54:49;5.13;;;2.53;;
19402;SDS011;9837;48.888;8.998;2023-04-15T10:57:15;6.67;;;2.60;;
19402;SDS011;9837;48.888;8.998;2023-04-15T11:05:05;5.97;;;2.83;;
19402;SDS011;9837;48.888;8.998;2023-04-15T11:07:53;4.17;;;2.77;;
19402;SDS011;9837;48.888;8.998;2023-04-15T11:12:56;5.53;;;2.67;;
19402;SDS011;9837;48.888;8.998;2023-04-15T11:17:57;3.37;;;2.30;;
19402;SDS011;9837;48.888;8.998;2023-04-15T11:20:24;5.10;;;2.47;;
19402;SDS011;9837;48.888;8.998;2023-04-15T11:22:51;4.23;;;3.10;;
19402;SDS011;9837;48.888;8.998;2023-04-15T11:25:23;5.40;;;2.73;;
19402;SDS011;9837;48.888;8.998;2023-04-15T11:27:50;4.70;;;2.67;;
19402;SDS011;9837;48.888;8.998;2023-04-15T11:30:20;5.00;;;2.70;;
19402;SDS011;9837;48.888;8.998;2023-04-15T11:32:47;4.97;;;3.07;;
19402;SDS011;9837;48.888;8.998;2023-04-15T11:35:13;4.60;;;2.97;;
19402;SDS011;9837;48.888;8.998;2023-04-15T11:37:39;4.17;;;2.30;;
19402;SDS011;9837;48.888;8.998;2023-04-15T11:40:06;6.17;;;3.53;;
19402;SDS011;9837;48.888;8.998;2023-04-15T11:42:32;5.37;;;3.40;;
19402;SDS011;9837;48.888;8.998;2023-04-15T11:45:08;5.80;;;3.20;;
19402;SDS011;9837;48.888;8.998;2023-04-15T11:47:38;5.50;;;2.97;;
19402;SDS011;9837;48.888;8.998;2023-04-15T11:52:51;6.57;;;3.00;;
19402;SDS011;9837;48.888;8.998;2023-04-15T11:55:19;5.37;;;3.27;;
19402;SDS011;9837;48.888;8.998;2023-04-15T11:57:45;6.70;;;2.90;;
19402;SDS011;9837;48.888;8.998;2023-04-15T12:00:11;9.70;;;3.20;;
19402;SDS011;9837;48.888;8.998;2023-04-15T12:02:37;6.80;;;3.70;;
19402;SDS011;9837;48.888;8.998;2023-04-15T12:05:03;9.73;;;4.17;;
19402;SDS011;9837;48.888;8.998;2023-04-15T12:07:32;7.27;;;4.33;;
19402;SDS011;9837;48.888;8.998;2023-04-15T12:09:58;3.93;;;3.00;;
19402;SDS011;9837;48.888;8.998;2023-04-15T12:12:27;6.17;;;3.30;;
19402;SDS011;9837;48.888;8.998;2023-04-15T12:14:53;6.60;;;3.30;;
19402;SDS011;9837;48.888;8.998;2023-04-15T12:17:21;5.70;;;3.33;;
19402;SDS011;9837;48.888;8.998;2023-04-15T12:19:48;3.87;;;2.80;;
19402;SDS011;9837;48.888;8.998;2023-04-15T12:22:20;4.67;;;2.93;;
19402;SDS011;9837;48.888;8.998;2023-04-15T12:24:46;4.60;;;2.70;;
19402;SDS011;9837;48.888;8.998;2023-04-15T12:27:13;6.17;;;2.70;;
19402;SDS011;9837;48.888;8.998;2023-04-15T12:29:40;3.50;;;2.90;;
19402;SDS011;9837;48.888;8.998;2023-04-15T12:32:10;5.33;;;2.77;;
19402;SDS011;9837;48.888;8.998;2023-04-15T12:34:47;4.80;;;3.00;;
19402;SDS011;9837;48.888;8.998;2023-04-15T12:37:15;4.37;;;2.70;;
19402;SDS011;9837;48.888;8.998;2023-04-15T12:39:41;4.33;;;2.90;;
19402;SDS011;9837;48.888;8.998;2023-04-15T12:42:08;4.97;;;3.27;;
19402;SDS011;9837;48.888;8.998;2023-04-15T12:44:35;5.57;;;2.77;;
19402;SDS011;9837;48.888;8.998;2023-04-15T12:47:01;4.50;;;2.80;;
19402;SDS011;9837;48.888;8.998;2023-04-15T12:49:27;4.83;;;2.73;;
19402;SDS011;9837;48.888;8.998;2023-04-15T12:51:54;3.87;;;3.03;;
19402;SDS011;9837;48.888;8.998;2023-04-15T12:54:21;3.30;;;2.73;;
19402;SDS011;9837;48.888;8.998;2023-04-15T12:56:47;4.73;;;2.40;;
19402;SDS011;9837;48.888;8.998;2023-04-15T12:59:14;2.90;;;2.50;;
19402;SDS011;9837;48.888;8.998;2023-04-15T13:01:41;4.37;;;2.80;;
19402;SDS011;9837;48.888;8.998;2023-04-15T13:04:07;5.43;;;2.43;;
19402;SDS011;9837;48.888;8.998;2023-04-15T13:06:33;5.83;;;2.20;;
19402;SDS011;9837;48.888;8.998;2023-04-15T13:08:59;4.70;;;2.10;;
19402;SDS011;9837;48.888;8.998;2023-04-15T13:11:25;3.43;;;1.70;;
19402;SDS011;9837;48.888;8.998;2023-04-15T13:13:53;2.23;;;2.03;;
19402;SDS011;9837;48.888;8.998;2023-04-15T13:16:18;4.03;;;2.63;;
19402;SDS011;9837;48.888;8.998;2023-04-15T13:18:44;4.93;;;2.27;;
19402;SDS011;9837;48.888;8.998;2023-04-15T13:21:11;4.47;;;2.70;;
19402;SDS011;9837;48.888;8.998;2023-04-15T14:18:14;1.47;;;1.37;;
19402;SDS011;9837;48.888;8.998;2023-04-15T15:43:02;4.27;;;1.50;;
19402;SDS011;9837;48.888;8.998;2023-04-15T16:02:53;5.07;;;2.70;;
19402;SDS011;9837;48.888;8.998;2023-04-15T16:05:21;1.90;;;1.70;;
19402;SDS011;9837;48.888;8.998;2023-04-15T16:07:59;1.90;;;1.57;;
19402;SDS011;9837;48.888;8.998;2023-04-15T16:11:22;1.80;;;1.70;;
19402;SDS011;9837;48.888;8.998;2023-04-15T16:13:58;3.00;;;1.80;;
19402;SDS011;9837;48.888;8.998;2023-04-15T16:16:25;5.13;;;1.90;;
19402;SDS011;9837;48.888;8.998;2023-04-15T16:23:10;3.83;;;2.00;;
19402;SDS011;9837;48.888;8.998;2023-04-15T16:26:08;2.27;;;1.40;;
19402;SDS011;9837;48.888;8.998;2023-04-15T16:32:25;2.63;;;2.00;;
19402;SDS011;9837;48.888;8.998;2023-04-15T16:35:35;2.63;;;2.10;;
19402;SDS011;9837;48.888;8.998;2023-04-15T16:42:01;2.67;;;2.20;;
19402;SDS011;9837;48.888;8.998;2023-04-15T16:44:58;2.63;;;2.10;;
19402;SDS011;9837;48.888;8.998;2023-04-15T16:47:36;6.23;;;5.73;;
19402;SDS011;9837;48.888;8.998;2023-04-15T16:50:10;2.40;;;2.20;;
19402;SDS011;9837;48.888;8.998;2023-04-15T16:53:05;2.83;;;2.53;;
19402;SDS011;9837;48.888;8.998;2023-04-15T16:55:56;3.20;;;2.77;;
19402;SDS011;9837;48.888;8.998;2023-04-15T16:59:05;6.70;;;6.10;;
19402;SDS011;9837;48.888;8.998;2023-04-15T17:01:31;2.60;;;2.40;;
19402;SDS011;9837;48.888;8.998;2023-04-15T17:04:09;2.20;;;1.93;;
19402;SDS011;9837;48.888;8.998;2023-04-15T17:06:35;2.00;;;1.73;;
19402;SDS011;9837;48.888;8.998;2023-04-15T17:09:01;1.90;;;1.80;;
19402;SDS011;9837;48.888;8.998;2023-04-15T17:11:27;1.73;;;1.63;;
19402;SDS011;9837;48.888;8.998;2023-04-15T17:13:53;3.97;;;2.30;;
19402;SDS011;9837;48.888;8.998;2023-04-15T17:16:20;1.70;;;1.57;;
19402;SDS011;9837;48.888;8.998;2023-04-15T17:18:46;1.80;;;1.60;;
19402;SDS011;9837;48.888;8.998;2023-04-15T17:21:14;3.63;;;1.80;;
19402;SDS011;9837;48.888;8.998;2023-04-15T17:23:41;2.17;;;2.00;;
19402;SDS011;9837;48.888;8.998;2023-04-15T17:26:07;4.10;;;2.10;;
19402;SDS011;9837;48.888;8.998;2023-04-15T17:28:33;1.80;;;1.70;;
19402;SDS011;9837;48.888;8.998;2023-04-15T17:30:59;2.30;;;2.07;;
19402;SDS011;9837;48.888;8.998;2023-04-15T17:33:25;1.83;;;1.73;;
19402;SDS011;9837;48.888;8.998;2023-04-15T17:35:52;2.70;;;2.50;;
19402;SDS011;9837;48.888;8.998;2023-04-15T17:38:20;2.13;;;1.97;;
19402;SDS011;9837;48.888;8.998;2023-04-15T17:40:50;2.50;;;2.30;;
19402;SDS011;9837;48.888;8.998;2023-04-15T17:43:17;5.60;;;5.10;;
19402;SDS011;9837;48.888;8.998;2023-04-15T17:45:43;4.33;;;3.20;;
19402;SDS011;9837;48.888;8.998;2023-04-15T17:48:12;9.43;;;5.80;;
19402;SDS011;9837;48.888;8.998;2023-04-15T17:50:38;5.77;;;5.33;;
19402;SDS011;9837;48.888;8.998;2023-04-15T17:53:04;11.40;;;10.33;;
19402;SDS011;9837;48.888;8.998;2023-04-15T17:55:32;4.90;;;4.50;;
19402;SDS011;9837;48.888;8.998;2023-04-15T17:58:00;3.20;;;2.90;;
19402;SDS011;9837;48.888;8.998;2023-04-15T18:00:29;2.77;;;2.57;;
19402;SDS011;9837;48.888;8.998;2023-04-15T18:02:58;3.40;;;3.10;;
19402;SDS011;9837;48.888;8.998;2023-04-15T18:05:24;3.37;;;2.90;;
19402;SDS011;9837;48.888;8.998;2023-04-15T18:07:52;2.20;;;2.10;;